Time;durP1;ratioP1;P1;durP2;ratioP2;P2;SDS_P1;SDS_P2;PMS_P1;PMS_P2;Temp;Humidity;BMP_temperature;BMP_pressure;BME280_temperature;BME280_humidity;BME280_pressure;Samples;Min_cycle;Max_cycle;Signal;HPM_P1;HPM_P2
2021/11/20 00:01:26;;;;;;;29.83;12.15;;;10.50;99.90;;;;;;4979950;28;20099;-75
2021/11/20 00:03:51;;;;;;;32.60;12.13;;;10.50;99.90;;;;;;4957582;28;20041;-75
2021/11/20 00:06:21;;;;;;;32.42;12.23;;;10.50;99.90;;;;;;4981810;28;20030;-75
2021/11/20 00:08:46;;;;;;;28.05;11.75;;;10.50;99.90;;;;;;4982164;28;20065;-75
2021/11/20 00:11:14;;;;;;;33.35;12.27;;;10.50;99.90;;;;;;4977539;28;20031;-75
2021/11/20 00:13:42;;;;;;;27.60;12.50;;;10.50;99.90;;;;;;4976547;28;20035;-73
2021/11/20 00:16:10;;;;;;;30.77;11.27;;;10.50;99.90;;;;;;4980324;28;20034;-74
2021/11/20 00:18:36;;;;;;;27.83;11.52;;;10.50;99.90;;;;;;4986368;28;20054;-76
2021/11/20 00:21:06;;;;;;;33.38;12.60;;;10.50;99.90;;;;;;4982549;28;20022;-76
2021/11/20 00:23:36;;;;;;;28.20;13.10;;;10.50;99.90;;;;;;4979670;28;20035;-74
2021/11/20 00:26:04;;;;;;;23.70;11.53;;;10.50;99.90;;;;;;4981451;28;20171;-75
2021/11/20 00:28:42;;;;;;;32.60;12.25;;;10.50;99.90;;;;;;4978485;28;20452;-74
2021/11/20 00:31:15;;;;;;;34.17;12.02;;;10.50;99.90;;;;;;4981686;28;20022;-75
2021/11/20 00:33:42;;;;;;;27.40;11.95;;;10.50;99.90;;;;;;4981706;28;20522;-75
2021/11/20 00:36:09;;;;;;;35.97;13.63;;;10.50;99.90;;;;;;4985013;28;20168;-75
2021/11/20 00:38:35;;;;;;;35.15;13.40;;;10.40;99.90;;;;;;4979644;28;20030;-75
2021/11/20 00:41:07;;;;;;;31.95;12.45;;;10.50;99.90;;;;;;4981666;28;20435;-75
2021/11/20 00:43:33;;;;;;;26.15;13.43;;;10.40;99.90;;;;;;4982453;28;20572;-73
2021/11/20 00:45:58;;;;;;;28.85;11.77;;;10.40;99.90;;;;;;4979372;28;20104;-74
2021/11/20 00:48:26;;;;;;;29.65;13.02;;;10.40;99.90;;;;;;4977051;28;20566;-75
2021/11/20 00:50:55;;;;;;;32.35;12.63;;;10.40;99.90;;;;;;4984655;28;20105;-75
2021/11/20 00:53:21;;;;;;;22.52;13.20;;;10.40;99.90;;;;;;4980862;28;20034;-75
2021/11/20 00:55:47;;;;;;;27.48;13.45;;;10.40;99.90;;;;;;4980615;28;20037;-74
2021/11/20 00:58:13;;;;;;;23.42;12.00;;;10.40;99.90;;;;;;4981604;28;20387;-75
2021/11/20 01:00:46;;;;;;;27.75;12.68;;;10.40;99.90;;;;;;4980862;28;20038;-75
2021/11/20 01:03:12;;;;;;;32.17;13.57;;;10.40;99.90;;;;;;4980310;28;20077;-74
2021/11/20 01:05:38;;;;;;;39.35;13.30;;;10.40;99.90;;;;;;4958072;28;20495;-75
2021/11/20 01:08:06;;;;;;;33.00;12.75;;;10.40;99.90;;;;;;4981193;28;20034;-74
2021/11/20 01:10:36;;;;;;;30.83;13.07;;;10.40;99.90;;;;;;4980085;28;20038;-73
2021/11/20 01:13:03;;;;;;;28.48;13.80;;;10.30;99.90;;;;;;4982215;28;20130;-75
2021/11/20 01:15:35;;;;;;;28.63;12.25;;;10.30;99.90;;;;;;4982442;28;20297;-74
2021/11/20 01:18:01;;;;;;;40.08;14.48;;;10.40;99.90;;;;;;4977374;28;20153;-73
2021/11/20 01:20:27;;;;;;;32.53;14.23;;;10.30;99.90;;;;;;4981600;28;20114;-75
2021/11/20 01:22:53;;;;;;;27.85;12.45;;;10.40;99.90;;;;;;4981064;28;20058;-75
2021/11/20 01:25:20;;;;;;;36.00;13.48;;;10.30;99.90;;;;;;4980238;28;20076;-75
2021/11/20 01:27:45;;;;;;;31.73;13.57;;;10.30;99.90;;;;;;4977467;28;20097;-74
2021/11/20 01:30:12;;;;;;;28.35;14.30;;;10.30;99.90;;;;;;4981495;28;20057;-75
2021/11/20 01:32:37;;;;;;;32.20;14.10;;;10.30;99.90;;;;;;4979459;28;20125;-75
2021/11/20 01:35:04;;;;;;;30.90;14.50;;;10.30;99.90;;;;;;4981149;28;20121;-75
2021/11/20 01:37:29;;;;;;;33.97;14.73;;;10.30;99.90;;;;;;4986266;28;20019;-74
2021/11/20 01:39:55;;;;;;;43.25;16.00;;;10.30;99.90;;;;;;4980926;28;20030;-75
2021/11/20 01:42:25;;;;;;;37.50;15.13;;;10.30;99.90;;;;;;4983906;28;20073;-76
2021/11/20 01:44:59;;;;;;;31.92;15.30;;;10.30;99.90;;;;;;4979663;28;20037;-75
2021/11/20 01:47:41;;;;;;;38.83;15.57;;;10.30;99.90;;;;;;4982550;28;20045;-75
2021/11/20 01:50:13;;;;;;;43.67;16.33;;;10.30;99.90;;;;;;4976919;28;20519;-75
2021/11/20 01:52:54;;;;;;;35.80;15.20;;;10.30;99.90;;;;;;4981557;28;20600;-75
2021/11/20 01:55:32;;;;;;;37.92;16.35;;;10.30;99.90;;;;;;4980561;28;20117;-75
2021/11/20 01:58:09;;;;;;;38.35;15.55;;;10.30;99.90;;;;;;4976993;28;20204;-74
2021/11/20 02:00:53;;;;;;;34.92;15.32;;;10.30;99.90;;;;;;4972144;28;20027;-75
2021/11/20 02:03:40;;;;;;;35.83;14.57;;;10.30;99.90;;;;;;4977472;28;20030;-75
2021/11/20 02:06:33;;;;;;;49.58;15.65;;;10.30;99.90;;;;;;4952007;28;20150;-75
2021/11/20 02:09:22;;;;;;;31.23;14.30;;;10.30;99.90;;;;;;4976970;28;20019;-75
2021/11/20 02:11:56;;;;;;;39.33;16.10;;;10.30;99.90;;;;;;4979385;28;20109;-75
2021/11/20 02:14:24;;;;;;;33.38;16.70;;;10.30;99.90;;;;;;4983539;28;20351;-75
2021/11/20 02:17:07;;;;;;;33.28;16.00;;;10.30;99.90;;;;;;4979976;28;20050;-75
2021/11/20 02:19:43;;;;;;;44.55;16.52;;;10.30;99.90;;;;;;4982186;28;20035;-75
2021/11/20 02:22:31;;;;;;;41.63;15.73;;;10.30;99.80;;;;;;4976626;28;20113;-75
2021/11/20 02:24:57;;;;;;;39.08;16.55;;;10.30;99.80;;;;;;4981183;28;20414;-74
2021/11/20 02:27:22;;;;;;;34.05;15.45;;;10.30;99.80;;;;;;4983691;28;20084;-75
2021/11/20 02:29:48;;;;;;;38.35;14.20;;;10.30;99.70;;;;;;4985816;28;20026;-75
2021/11/20 02:32:23;;;;;;;46.42;15.65;;;10.30;99.70;;;;;;4984984;28;20522;-75
2021/11/20 02:34:51;;;;;;;37.83;15.20;;;10.30;99.70;;;;;;4983260;28;20037;-75
2021/11/20 02:37:19;;;;;;;37.45;14.00;;;10.30;99.70;;;;;;4986384;28;20041;-75
2021/11/20 02:39:45;;;;;;;37.53;14.23;;;10.30;99.60;;;;;;4986044;28;20125;-74
2021/11/20 02:42:18;;;;;;;32.90;14.00;;;10.30;99.60;;;;;;4987500;28;20455;-75
2021/11/20 02:44:45;;;;;;;35.42;14.02;;;10.30;99.60;;;;;;4979793;28;20044;-75
2021/11/20 02:47:30;;;;;;;35.95;14.02;;;10.30;99.50;;;;;;4981127;28;20495;-75
2021/11/20 02:49:56;;;;;;;32.92;12.82;;;10.30;99.50;;;;;;4984014;28;20093;-75
2021/11/20 02:52:22;;;;;;;37.05;13.15;;;10.30;99.50;;;;;;4984755;28;20026;-75
2021/11/20 02:54:48;;;;;;;28.88;12.60;;;10.30;99.40;;;;;;4981944;28;20054;-76
2021/11/20 02:57:21;;;;;;;34.80;13.50;;;10.40;99.40;;;;;;4983496;28;20089;-75
2021/11/20 02:59:47;;;;;;;37.13;12.85;;;10.30;99.30;;;;;;4983641;28;20041;-75
2021/11/20 03:02:13;;;;;;;37.92;13.40;;;10.30;99.30;;;;;;4979738;28;20038;-75
2021/11/20 03:04:40;;;;;;;40.50;12.82;;;10.30;99.30;;;;;;4966133;28;20141;-75
2021/11/20 03:07:06;;;;;;;36.38;13.45;;;10.40;99.30;;;;;;4984269;28;20077;-75
2021/11/20 03:09:34;;;;;;;25.55;12.57;;;10.30;99.30;;;;;;4979445;28;20034;-75
2021/11/20 03:12:02;;;;;;;34.08;14.00;;;10.40;99.30;;;;;;4979986;28;20026;-75
2021/11/20 03:14:28;;;;;;;34.08;14.02;;;10.30;99.30;;;;;;4985979;28;20061;-75
2021/11/20 03:17:03;;;;;;;35.55;13.63;;;10.30;99.30;;;;;;4994435;28;20134;-75
2021/11/20 03:19:32;;;;;;;35.75;13.20;;;10.30;99.30;;;;;;4987983;28;20550;-75
2021/11/20 03:22:03;;;;;;;31.15;12.32;;;10.30;99.30;;;;;;4985587;28;20031;-75
2021/11/20 03:24:29;;;;;;;30.48;12.40;;;10.30;99.30;;;;;;4981860;28;20399;-75
2021/11/20 03:26:57;;;;;;;31.83;13.13;;;10.30;99.30;;;;;;4982996;28;20038;-75
2021/11/20 03:29:24;;;;;;;32.58;13.20;;;10.30;99.20;;;;;;4981058;28;20045;-75
2021/11/20 03:31:52;;;;;;;37.95;13.27;;;10.30;99.10;;;;;;4979572;28;20403;-75
2021/11/20 03:34:19;;;;;;;29.25;11.98;;;10.30;99.10;;;;;;4982200;28;20171;-74
2021/11/20 03:36:44;;;;;;;30.27;13.23;;;10.30;99.00;;;;;;4980642;28;20133;-74
2021/11/20 03:39:11;;;;;;;31.13;12.27;;;10.40;98.90;;;;;;4979836;28;20105;-75
2021/11/20 03:41:37;;;;;;;25.23;11.68;;;10.30;98.90;;;;;;4983352;28;20040;-75
2021/11/20 03:44:03;;;;;;;26.33;12.07;;;10.40;98.90;;;;;;4981223;28;20465;-75
2021/11/20 03:46:28;;;;;;;25.08;12.90;;;10.30;98.90;;;;;;5006300;23;20038;-79
2021/11/20 03:48:54;;;;;;;29.70;12.25;;;10.30;99.00;;;;;;5017968;28;20061;-76
2021/11/20 03:51:20;;;;;;;31.17;12.45;;;10.30;99.00;;;;;;4980317;28;20069;-76
2021/11/20 03:53:45;;;;;;;28.92;12.20;;;10.30;98.90;;;;;;5016757;28;20035;-76
2021/11/20 03:56:12;;;;;;;26.27;11.93;;;10.30;98.90;;;;;;5013164;28;20030;-76
2021/11/20 03:58:38;;;;;;;24.60;12.68;;;10.30;98.90;;;;;;4981976;28;20039;-76
2021/11/20 04:01:11;;;;;;;33.75;13.25;;;10.30;98.90;;;;;;4983336;28;20030;-76
2021/11/20 04:03:39;;;;;;;29.80;12.70;;;10.30;98.90;;;;;;4984931;28;20038;-76
2021/11/20 04:06:10;;;;;;;25.35;12.40;;;10.30;98.90;;;;;;4964892;28;20049;-76
2021/11/20 04:08:35;;;;;;;27.27;12.93;;;10.30;98.90;;;;;;4997975;28;20066;-76
2021/11/20 04:11:02;;;;;;;36.55;13.23;;;10.20;98.90;;;;;;4981122;28;20045;-76
2021/11/20 04:13:27;;;;;;;28.65;13.40;;;10.20;98.90;;;;;;4982444;28;20038;-76
2021/11/20 04:15:55;;;;;;;25.45;12.80;;;10.20;98.90;;;;;;4980051;28;20030;-76
2021/11/20 04:18:21;;;;;;;26.48;13.35;;;10.20;98.90;;;;;;4985980;28;20031;-76
2021/11/20 04:20:47;;;;;;;23.75;12.75;;;10.20;98.80;;;;;;4984547;28;20030;-76
2021/11/20 04:23:12;;;;;;;32.83;13.48;;;10.20;98.80;;;;;;4981382;28;20056;-76
2021/11/20 04:25:39;;;;;;;26.30;13.35;;;10.10;98.80;;;;;;4980642;28;20472;-76
2021/11/20 04:28:05;;;;;;;30.25;13.88;;;10.10;98.80;;;;;;4984430;28;20158;-76
2021/11/20 04:30:32;;;;;;;30.63;13.23;;;10.20;98.80;;;;;;4984315;28;20175;-75
2021/11/20 04:32:57;;;;;;;28.45;13.93;;;10.10;98.80;;;;;;4983285;28;20058;-76
2021/11/20 04:35:25;;;;;;;33.17;14.90;;;10.10;98.80;;;;;;4985035;28;20060;-76
2021/11/20 04:37:51;;;;;;;28.67;14.55;;;10.10;98.70;;;;;;4986305;28;20030;-76
2021/11/20 04:40:18;;;;;;;32.50;14.60;;;10.10;98.70;;;;;;4984241;28;20090;-75
2021/11/20 04:42:43;;;;;;;23.30;13.18;;;10.20;98.80;;;;;;4980817;28;20493;-76
2021/11/20 04:45:12;;;;;;;25.92;13.70;;;10.10;98.80;;;;;;4984584;28;20121;-76
2021/11/20 04:47:38;;;;;;;23.85;13.07;;;10.20;98.70;;;;;;4984739;28;20268;-76
2021/11/20 04:50:06;;;;;;;28.55;14.10;;;10.20;98.60;;;;;;4984085;28;20026;-77
2021/11/20 04:52:31;;;;;;;26.67;13.63;;;10.20;98.60;;;;;;4983547;28;20018;-76
2021/11/20 04:54:57;;;;;;;28.88;14.18;;;10.20;98.50;;;;;;4986929;28;20056;-77
2021/11/20 04:57:23;;;;;;;26.50;13.35;;;10.20;98.40;;;;;;4985424;28;20511;-77
2021/11/20 04:59:48;;;;;;;29.50;14.73;;;10.20;98.40;;;;;;4978262;28;20026;-77
2021/11/20 05:02:14;;;;;;;21.40;12.68;;;10.20;98.50;;;;;;4984965;28;20031;-77
2021/11/20 05:04:39;;;;;;;29.95;13.50;;;10.20;98.50;;;;;;4961051;28;20054;-76
2021/11/20 05:07:06;;;;;;;28.75;12.60;;;10.20;98.40;;;;;;4983691;28;20030;-76
2021/11/20 05:09:32;;;;;;;31.17;13.50;;;10.20;98.40;;;;;;4978863;28;20031;-77
2021/11/20 05:11:58;;;;;;;24.33;13.27;;;10.20;98.50;;;;;;4982884;28;20034;-76
2021/11/20 05:14:24;;;;;;;26.08;14.07;;;10.20;98.40;;;;;;4985391;28;20061;-76
2021/11/20 05:16:49;;;;;;;24.55;13.82;;;10.20;98.40;;;;;;4978169;28;20482;-76
2021/11/20 05:19:15;;;;;;;29.23;14.15;;;10.20;98.40;;;;;;4982961;28;20026;-76
2021/11/20 05:21:41;;;;;;;24.20;13.80;;;10.20;98.30;;;;;;4984645;28;20057;-76
2021/11/20 05:24:06;;;;;;;21.83;13.57;;;10.20;98.30;;;;;;4986887;28;20034;-76
2021/11/20 05:26:32;;;;;;;26.85;13.73;;;10.30;98.20;;;;;;4983468;28;20029;-75
2021/11/20 05:31:27;;;;;;;26.45;13.40;;;10.20;98.10;;;;;;4981729;28;20053;-76
2021/11/20 05:33:52;;;;;;;21.90;13.02;;;10.30;98.00;;;;;;4986431;28;20402;-76
2021/11/20 05:36:20;;;;;;;26.20;12.52;;;10.30;98.00;;;;;;4979296;28;20035;-75
2021/11/20 05:38:46;;;;;;;24.63;14.00;;;10.30;98.10;;;;;;4983239;28;20113;-75
2021/11/20 05:41:12;;;;;;;28.17;14.25;;;10.30;98.10;;;;;;4977887;28;20035;-75
2021/11/20 05:43:38;;;;;;;25.67;13.23;;;10.30;98.20;;;;;;4981909;28;20033;-75
2021/11/20 05:46:07;;;;;;;27.63;14.27;;;10.20;98.20;;;;;;4981824;28;22133;-75
2021/11/20 05:48:33;;;;;;;22.05;13.45;;;10.20;98.30;;;;;;4980836;28;20028;-75
2021/11/20 05:50:58;;;;;;;24.98;12.75;;;10.20;98.40;;;;;;4979762;28;20023;-76
2021/11/20 05:53:25;;;;;;;23.02;13.60;;;10.20;98.50;;;;;;4982578;28;20423;-76
2021/11/20 05:55:54;;;;;;;28.50;13.93;;;10.20;98.60;;;;;;4986807;28;20045;-75
2021/11/20 05:58:20;;;;;;;30.63;15.00;;;10.20;98.60;;;;;;4979577;28;20023;-75
2021/11/20 06:00:49;;;;;;;25.05;13.85;;;10.20;98.60;;;;;;4975312;28;20041;-74
2021/11/20 06:03:17;;;;;;;20.83;12.77;;;10.20;98.60;;;;;;4997616;28;20057;-76
2021/11/20 06:05:43;;;;;;;19.73;13.45;;;10.20;98.50;;;;;;4958431;28;20522;-76
2021/11/20 06:08:09;;;;;;;21.20;13.07;;;10.20;98.40;;;;;;4984151;28;20080;-75
2021/11/20 06:10:36;;;;;;;25.98;12.77;;;10.20;98.30;;;;;;4981530;28;20019;-75
2021/11/20 06:13:05;;;;;;;27.73;13.80;;;10.30;98.30;;;;;;4982026;28;20038;-75
2021/11/20 06:15:30;;;;;;;18.90;12.18;;;10.20;98.20;;;;;;4977961;28;20035;-76
2021/11/20 06:17:56;;;;;;;21.77;12.57;;;10.20;98.20;;;;;;4979509;28;20398;-76
2021/11/20 06:20:21;;;;;;;21.52;12.55;;;10.20;98.20;;;;;;4987050;28;20034;-76
2021/11/20 06:22:48;;;;;;;22.17;12.20;;;10.20;98.20;;;;;;4980889;28;20027;-75
2021/11/20 06:25:13;;;;;;;22.73;12.63;;;10.20;98.20;;;;;;4981562;28;20049;-76
2021/11/20 06:27:39;;;;;;;24.08;12.80;;;10.20;98.10;;;;;;4977912;28;20027;-74
2021/11/20 06:30:08;;;;;;;18.63;11.35;;;10.20;98.00;;;;;;4980413;28;20080;-75
2021/11/20 06:32:34;;;;;;;19.92;11.75;;;10.20;98.00;;;;;;5014503;28;20225;-75
2021/11/20 06:34:59;;;;;;;20.90;12.02;;;10.20;97.90;;;;;;4983264;28;20027;-76
2021/11/20 06:37:25;;;;;;;23.65;11.55;;;10.20;97.90;;;;;;4977634;28;20061;-75
2021/11/20 06:39:51;;;;;;;23.02;12.30;;;10.20;97.80;;;;;;4980730;28;20292;-76
2021/11/20 06:42:17;;;;;;;23.00;12.00;;;10.20;97.70;;;;;;4975329;28;20038;-75
2021/11/20 06:44:42;;;;;;;24.30;13.10;;;10.20;97.70;;;;;;5014452;28;20468;-76
2021/11/20 06:47:08;;;;;;;24.25;12.10;;;10.20;97.70;;;;;;4978616;28;20666;-76
2021/11/20 06:49:34;;;;;;;17.30;11.25;;;10.20;97.70;;;;;;4982289;28;20035;-76
2021/11/20 06:51:59;;;;;;;19.65;11.27;;;10.20;97.70;;;;;;4979588;28;20031;-75
2021/11/20 06:54:25;;;;;;;22.88;12.45;;;10.10;97.80;;;;;;4979682;28;20058;-75
2021/11/20 06:56:53;;;;;;;18.85;11.35;;;10.20;97.70;;;;;;4981325;28;20108;-76
2021/11/20 07:01:51;;;;;;;23.95;12.30;;;10.20;97.50;;;;;;4986335;28;20069;-75
2021/11/20 07:04:22;;;;;;;22.83;11.63;;;10.10;97.60;;;;;;4984106;28;20241;-74
2021/11/20 07:06:52;;;;;;;19.65;10.65;;;10.20;97.50;;;;;;4961434;28;20070;-76
2021/11/20 07:09:18;;;;;;;22.95;11.20;;;10.20;97.50;;;;;;5011655;28;20037;-74
2021/11/20 07:11:44;;;;;;;18.23;11.20;;;10.20;97.50;;;;;;4985677;28;20066;-75
2021/11/20 07:14:10;;;;;;;17.35;11.65;;;10.20;97.50;;;;;;4989392;28;20061;-75
2021/11/20 07:16:36;;;;;;;23.02;12.27;;;10.20;97.40;;;;;;4982540;28;20058;-75
2021/11/20 07:19:02;;;;;;;20.42;11.95;;;10.20;97.30;;;;;;4987116;28;20085;-75
2021/11/20 07:21:28;;;;;;;22.50;12.40;;;10.20;97.30;;;;;;4987465;28;20022;-76
2021/11/20 07:23:56;;;;;;;23.58;11.70;;;10.20;97.40;;;;;;4984438;28;20113;-76
2021/11/20 07:26:23;;;;;;;18.98;11.38;;;10.20;97.30;;;;;;4986755;28;20026;-75
2021/11/20 07:28:50;;;;;;;20.08;11.55;;;10.20;97.30;;;;;;4985895;28;20023;-75
2021/11/20 07:31:15;;;;;;;24.70;12.70;;;10.20;97.20;;;;;;4976477;28;20444;-75
2021/11/20 07:33:41;;;;;;;20.52;13.38;;;10.30;97.20;;;;;;4978506;28;20045;-76
2021/11/20 07:36:08;;;;;;;22.77;14.05;;;10.20;97.10;;;;;;4981515;28;20154;-77
2021/11/20 07:38:51;;;;;;;23.88;13.63;;;10.20;97.20;;;;;;4983427;28;20430;-74
2021/11/20 07:41:17;;;;;;;28.17;15.90;;;10.30;97.20;;;;;;4979959;28;20037;-75
2021/11/20 07:43:42;;;;;;;27.73;15.80;;;10.30;97.30;;;;;;4986548;28;20034;-75
2021/11/20 07:46:10;;;;;;;30.50;17.52;;;10.30;97.30;;;;;;4980588;28;20034;-75
2021/11/20 07:48:37;;;;;;;27.63;16.70;;;10.30;97.30;;;;;;4996634;28;20506;-75
2021/11/20 07:51:04;;;;;;;33.65;17.60;;;10.30;97.20;;;;;;4983017;28;20390;-76
2021/11/20 07:53:30;;;;;;;30.58;17.73;;;10.30;97.20;;;;;;4985943;28;20112;-75
2021/11/20 07:55:57;;;;;;;30.15;17.33;;;10.30;97.20;;;;;;4980334;28;20030;-76
2021/11/20 07:58:22;;;;;;;27.88;16.92;;;10.30;97.10;;;;;;4980828;28;20035;-76
2021/11/20 08:00:49;;;;;;;27.98;18.08;;;10.30;97.00;;;;;;4976868;28;20061;-75
2021/11/20 08:03:15;;;;;;;30.42;18.13;;;10.40;97.00;;;;;;4987394;28;20298;-76
2021/11/20 08:05:41;;;;;;;26.00;17.38;;;10.30;96.90;;;;;;4968068;28;20219;-76
2021/11/20 08:08:06;;;;;;;31.23;17.90;;;10.40;97.00;;;;;;4986077;28;20031;-76
2021/11/20 08:10:33;;;;;;;33.22;18.17;;;10.30;97.00;;;;;;4982821;28;20034;-75
2021/11/20 08:13:00;;;;;;;32.00;17.52;;;10.40;97.00;;;;;;4976249;28;20058;-75
2021/11/20 08:15:27;;;;;;;26.08;17.02;;;10.40;96.90;;;;;;4976898;28;20060;-75
2021/11/20 08:17:53;;;;;;;23.92;16.13;;;10.40;96.80;;;;;;4999801;28;20060;-76
2021/11/20 08:20:22;;;;;;;22.55;14.60;;;10.50;96.30;;;;;;4979815;28;20031;-77
2021/11/20 08:22:48;;;;;;;20.65;14.82;;;10.50;96.30;;;;;;4987583;28;20030;-76
2021/11/20 08:25:18;;;;;;;24.33;14.85;;;10.50;96.30;;;;;;4984149;28;20033;-76
2021/11/20 08:27:44;;;;;;;23.90;14.88;;;10.50;96.40;;;;;;4985746;28;20030;-75
2021/11/20 08:30:12;;;;;;;20.67;13.68;;;10.50;96.30;;;;;;4980306;28;20550;-76
2021/11/20 08:32:38;;;;;;;25.80;14.45;;;10.50;96.20;;;;;;4988330;28;20030;-76
2021/11/20 08:35:05;;;;;;;21.05;14.63;;;10.50;96.30;;;;;;4986363;28;20606;-76
2021/11/20 08:37:33;;;;;;;24.45;14.95;;;10.50;96.20;;;;;;4989121;28;20080;-76
2021/11/20 08:39:58;;;;;;;26.05;13.77;;;10.60;96.00;;;;;;4986876;28;20050;-77
2021/11/20 08:42:26;;;;;;;23.67;13.68;;;10.60;96.00;;;;;;4989465;28;20058;-76
2021/11/20 08:44:52;;;;;;;21.02;13.23;;;10.60;95.80;;;;;;4985384;28;20038;-76
2021/11/20 08:47:18;;;;;;;20.33;12.48;;;10.60;95.80;;;;;;4983949;28;20323;-76
2021/11/20 08:49:44;;;;;;;21.55;12.73;;;10.60;95.30;;;;;;4984651;28;20042;-76
2021/11/20 08:52:10;;;;;;;24.02;12.30;;;10.60;95.50;;;;;;4987785;28;20030;-76
2021/11/20 08:54:36;;;;;;;19.30;12.45;;;10.70;95.20;;;;;;4988430;28;20022;-76
2021/11/20 08:57:02;;;;;;;17.35;12.52;;;10.70;95.30;;;;;;4984329;28;20065;-76
2021/11/20 08:59:29;;;;;;;20.02;12.48;;;10.70;95.40;;;;;;4985232;28;20030;-76
2021/11/20 09:02:01;;;;;;;18.42;11.43;;;10.70;94.80;;;;;;4986896;28;20034;-77
2021/11/20 09:04:39;;;;;;;19.95;11.48;;;10.80;95.00;;;;;;5020550;28;20026;-77
2021/11/20 09:07:20;;;;;;;19.08;11.55;;;10.80;94.70;;;;;;4965782;28;20124;-76
2021/11/20 09:09:54;;;;;;;16.63;11.20;;;10.80;94.70;;;;;;4963860;28;20110;-75
2021/11/20 09:12:41;;;;;;;17.90;10.68;;;10.80;94.30;;;;;;4970205;28;20126;-77
2021/11/20 09:15:13;;;;;;;14.63;10.13;;;10.80;94.40;;;;;;4966045;28;20023;-76
2021/11/20 09:17:39;;;;;;;20.52;10.70;;;10.90;94.30;;;;;;4965384;28;20047;-76
2021/11/20 09:20:06;;;;;;;16.77;9.75;;;11.00;94.30;;;;;;4965915;28;20042;-76
2021/11/20 09:22:32;;;;;;;14.98;9.35;;;11.00;94.00;;;;;;4961365;28;20035;-77
2021/11/20 09:24:57;;;;;;;15.55;9.48;;;11.00;93.60;;;;;;4964022;28;20049;-76
2021/11/20 09:27:24;;;;;;;14.88;8.65;;;11.00;93.30;;;;;;4997614;28;20073;-77
2021/11/20 09:29:50;;;;;;;16.42;9.25;;;11.00;93.30;;;;;;4964360;28;20035;-76
2021/11/20 09:32:16;;;;;;;17.30;8.65;;;11.00;93.20;;;;;;4966247;28;20026;-77
2021/11/20 09:34:41;;;;;;;13.68;8.55;;;11.10;93.40;;;;;;4968256;28;20034;-76
2021/11/20 09:37:07;;;;;;;14.68;8.65;;;11.10;93.40;;;;;;4961509;28;20026;-77
2021/11/20 09:39:36;;;;;;;16.08;9.10;;;11.00;93.40;;;;;;4967094;28;20706;-75
2021/11/20 09:42:27;;;;;;;13.75;9.02;;;11.00;93.50;;;;;;4963149;28;20030;-77
2021/11/20 09:44:56;;;;;;;14.55;8.02;;;11.10;93.50;;;;;;4965286;28;20062;-76
2021/11/20 09:47:29;;;;;;;11.32;8.02;;;11.00;93.20;;;;;;4970461;23;20084;-76
2021/11/20 09:50:01;;;;;;;11.50;8.15;;;11.00;93.00;;;;;;4940194;28;20019;-77
2021/11/20 09:52:27;;;;;;;19.25;9.25;;;11.10;93.30;;;;;;4945048;29;20484;-77
2021/11/20 09:54:53;;;;;;;12.32;8.02;;;11.00;93.20;;;;;;4944734;28;20051;-76
2021/11/20 09:57:27;;;;;;;13.80;8.55;;;11.00;92.90;;;;;;4940830;28;20159;-76
2021/11/20 10:00:27;;;;;;;12.90;8.55;;;11.00;93.00;;;;;;4941231;29;20090;-76
2021/11/20 10:03:17;;;;;;;14.68;8.50;;;11.00;93.30;;;;;;4944128;29;20043;-77
2021/11/20 10:05:44;;;;;;;15.45;8.93;;;11.00;93.20;;;;;;4912242;28;20058;-74
2021/11/20 10:08:20;;;;;;;13.70;9.00;;;11.00;93.00;;;;;;4944345;28;20086;-77
2021/11/20 10:11:11;;;;;;;11.93;8.52;;;11.00;93.10;;;;;;4940739;28;20039;-76
2021/11/20 10:13:55;;;;;;;16.35;9.45;;;11.00;93.10;;;;;;4948102;28;20046;-75
2021/11/20 10:16:39;;;;;;;17.42;9.90;;;11.00;93.20;;;;;;4939869;28;20122;-76
2021/11/20 10:19:13;;;;;;;13.80;9.13;;;11.00;93.60;;;;;;4946944;28;20067;-74
2021/11/20 10:21:54;;;;;;;15.57;9.88;;;11.00;93.40;;;;;;4941343;28;20093;-76
2021/11/20 10:24:46;;;;;;;15.05;9.73;;;10.90;93.40;;;;;;4941713;29;20122;-76
2021/11/20 10:27:32;;;;;;;;;;;10.90;93.50;;;;;;4939078;28;20417;-75
2021/11/20 10:30:10;;;;;;;15.68;9.70;;;10.80;93.50;;;;;;4941126;29;19914;-75
2021/11/20 10:32:38;;;;;;;14.90;10.55;;;10.80;93.50;;;;;;4942935;29;20054;-75
2021/11/20 10:35:44;;;;;;;16.05;10.88;;;10.80;93.60;;;;;;4946179;28;20443;-76
2021/11/20 10:38:33;;;;;;;18.83;11.38;;;10.80;93.50;;;;;;4940477;28;20245;-77
2021/11/20 10:41:11;;;;;;;16.77;11.43;;;10.80;93.60;;;;;;4941593;28;20467;-75
2021/11/20 10:43:42;;;;;;;18.55;12.40;;;10.80;93.60;;;;;;4945438;28;20408;-75
2021/11/20 10:46:29;;;;;;;17.85;12.75;;;10.80;93.80;;;;;;4946001;28;20035;-76
2021/11/20 10:49:32;;;;;;;19.10;12.25;;;10.80;93.70;;;;;;4946833;29;20504;-76
2021/11/20 10:52:16;;;;;;;18.90;13.27;;;10.90;93.60;;;;;;4947545;28;20059;-77
2021/11/20 10:55:00;;;;;;;17.73;13.07;;;10.90;93.70;;;;;;4944435;29;20423;-76
2021/11/20 10:58:03;;;;;;;18.50;13.05;;;10.90;93.60;;;;;;4945598;28;20090;-76
2021/11/20 11:00:40;;;;;;;22.02;13.38;;;10.90;93.90;;;;;;4946821;29;20031;-75
2021/11/20 11:03:33;;;;;;;19.58;13.80;;;10.80;93.60;;;;;;4945598;29;20141;-76
2021/11/20 11:06:20;;;;;;;24.98;14.43;;;10.80;93.70;;;;;;4918943;28;20139;-76
2021/11/20 11:08:58;;;;;;;16.80;12.85;;;10.80;93.60;;;;;;4949274;28;20027;-77
2021/11/20 11:11:41;;;;;;;18.83;13.50;;;10.90;93.50;;;;;;4943337;29;20023;-76
2021/11/20 11:14:32;;;;;;;20.60;14.32;;;10.90;93.50;;;;;;4943895;28;20031;-76
2021/11/20 11:17:04;;;;;;;19.42;14.32;;;10.80;93.60;;;;;;4945430;28;20043;-76
2021/11/20 11:19:42;;;;;;;21.08;15.10;;;10.80;93.70;;;;;;4943513;29;20085;-76
2021/11/20 11:22:41;;;;;;;21.60;15.32;;;10.80;93.70;;;;;;4948808;28;20030;-76
2021/11/20 11:25:16;;;;;;;23.42;16.00;;;10.80;93.80;;;;;;4949251;29;20164;-76
2021/11/20 11:28:00;;;;;;;23.13;17.30;;;10.80;93.90;;;;;;4942373;28;20023;-76
2021/11/20 11:30:30;;;;;;;23.88;17.15;;;10.70;93.90;;;;;;4979388;28;20015;-76
2021/11/20 11:32:57;;;;;;;21.80;16.25;;;10.70;94.00;;;;;;4943772;28;20062;-77
2021/11/20 11:35:40;;;;;;;24.77;17.13;;;10.70;94.00;;;;;;4946744;28;20421;-76
2021/11/20 11:38:40;;;;;;;25.13;16.90;;;10.80;94.20;;;;;;4947366;28;20114;-76
2021/11/20 11:41:15;;;;;;;23.40;16.67;;;10.80;94.30;;;;;;4946169;29;20175;-76
2021/11/20 11:43:50;;;;;;;24.65;17.10;;;10.70;94.10;;;;;;4945185;29;20369;-76
2021/11/20 11:46:49;;;;;;;23.30;17.33;;;10.70;94.30;;;;;;4931356;28;24558;-76
2021/11/20 11:49:18;;;;;;;24.85;17.42;;;10.70;94.00;;;;;;4938461;28;20188;-77
2021/11/20 11:52:19;;;;;;;21.63;17.10;;;10.70;94.20;;;;;;4938790;28;20062;-77
2021/11/20 11:55:04;;;;;;;22.02;17.35;;;10.70;94.20;;;;;;4940395;28;20113;-76
2021/11/20 11:57:44;;;;;;;23.83;16.25;;;10.70;93.80;;;;;;4941153;28;20105;-76
2021/11/20 12:00:19;;;;;;;22.73;16.48;;;10.70;93.90;;;;;;4944942;28;20210;-76
2021/11/20 12:02:52;;;;;;;23.63;16.73;;;10.70;93.80;;;;;;4941062;28;20050;-77
2021/11/20 12:05:24;;;;;;;26.48;17.70;;;10.70;93.60;;;;;;4922431;28;20035;-76
2021/11/20 12:07:49;;;;;;;21.65;17.05;;;10.70;93.70;;;;;;4960934;28;20051;-76
2021/11/20 12:10:30;;;;;;;22.75;15.63;;;10.60;93.50;;;;;;4961981;28;20109;-76
2021/11/20 12:13:06;;;;;;;20.70;15.60;;;10.70;93.30;;;;;;4957603;28;20154;-76
2021/11/20 12:15:49;;;;;;;21.10;16.38;;;10.70;93.60;;;;;;4956010;28;20057;-76
2021/11/20 12:18:39;;;;;;;21.95;16.63;;;10.70;93.40;;;;;;4969046;28;20038;-76
2021/11/20 12:21:31;;;;;;;21.23;15.77;;;10.70;93.30;;;;;;4965126;28;20226;-77
2021/11/20 12:24:30;;;;;;;21.88;15.38;;;10.70;93.10;;;;;;4960773;28;20085;-76
2021/11/20 12:27:04;;;;;;;21.67;16.27;;;10.70;93.00;;;;;;4961621;28;20027;-76
2021/11/20 12:30:15;;;;;;;21.35;14.93;;;10.70;93.00;;;;;;4964268;28;20098;-78
2021/11/20 12:33:02;;;;;;;20.83;15.20;;;10.70;92.90;;;;;;4961293;28;20043;-76
2021/11/20 12:35:50;;;;;;;21.98;15.20;;;10.70;92.70;;;;;;4960702;28;20664;-77
2021/11/20 12:39:00;;;;;;;21.15;15.38;;;10.60;92.90;;;;;;4968761;28;20041;-77
2021/11/20 12:41:57;;;;;;;25.08;14.85;;;10.60;92.60;;;;;;4955794;28;20365;-76
2021/11/20 12:44:50;;;;;;;24.00;15.82;;;10.60;92.60;;;;;;4977000;28;20173;-77
2021/11/20 12:47:48;;;;;;;18.85;14.32;;;10.60;92.80;;;;;;4955662;28;20031;-77
2021/11/20 12:50:32;;;;;;;19.42;13.82;;;10.60;92.80;;;;;;4964370;28;20022;-78
2021/11/20 12:53:03;;;;;;;19.92;14.82;;;10.60;92.80;;;;;;4961428;28;20498;-76
2021/11/20 12:55:47;;;;;;;22.58;15.60;;;10.50;92.90;;;;;;4961376;28;20026;-77